Time;durP1;ratioP1;P1;durP2;ratioP2;P2;SDS_P1;SDS_P2;PMS_P1;PMS_P2;Temp;Humidity;BMP_temperature;BMP_pressure;BME280_temperature;BME280_humidity;BME280_pressure;Samples;Min_cycle;Max_cycle;Signal;HPM_P1;HPM_P2
2022/09/18 00:01:17;;;;;;;6.50;3.70;;;;;;;9.89;100.00;99642.09;5006816;28;20041;-81
2022/09/18 00:03:43;;;;;;;5.85;3.88;;;;;;;9.88;100.00;99637.75;5008748;28;20532;-81
2022/09/18 00:06:11;;;;;;;4.90;3.70;;;;;;;9.85;100.00;99653.59;5005579;28;20042;-80
2022/09/18 00:08:37;;;;;;;4.22;3.45;;;;;;;9.81;100.00;99641.38;5008230;28;20378;-81
2022/09/18 00:11:08;;;;;;;3.83;3.15;;;;;;;9.82;100.00;99648.38;5005881;28;20401;-81
2022/09/18 00:13:35;;;;;;;4.07;3.47;;;;;;;9.82;100.00;99643.09;5008302;28;20080;-81
2022/09/18 00:16:01;;;;;;;3.03;2.70;;;;;;;9.84;100.00;99646.59;5011933;28;20037;-81
2022/09/18 00:18:26;;;;;;;3.95;3.40;;;;;;;9.83;100.00;99639.59;5008966;28;20094;-81
2022/09/18 00:20:51;;;;;;;4.00;3.10;;;;;;;9.90;100.00;99645.59;5019785;28;20121;-81
2022/09/18 00:23:17;;;;;;;6.15;3.65;;;;;;;9.88;100.00;99641.25;5008984;28;20037;-81
2022/09/18 00:25:42;;;;;;;3.50;3.20;;;;;;;9.93;100.00;99641.16;5010578;28;20049;-81
2022/09/18 00:28:07;;;;;;;5.32;3.60;;;;;;;9.98;100.00;99644.59;5012615;28;20037;-81
2022/09/18 00:30:33;;;;;;;3.95;3.42;;;;;;;9.96;100.00;99646.38;5017399;28;20050;-81
2022/09/18 00:32:58;;;;;;;5.85;3.13;;;;;;;9.96;100.00;99646.38;5008875;28;20038;-81
2022/09/18 00:35:23;;;;;;;4.90;3.17;;;;;;;9.93;100.00;99643.81;5013033;28;20053;-81
2022/09/18 00:37:49;;;;;;;4.78;3.70;;;;;;;9.87;100.00;99646.53;5005575;28;20096;-80
2022/09/18 00:40:15;;;;;;;5.90;3.47;;;;;;;9.86;100.00;99642.16;5009693;28;20038;-80
2022/09/18 00:42:41;;;;;;;7.68;3.40;;;;;;;9.87;100.00;99643.91;5006847;28;20141;-80
2022/09/18 00:45:09;;;;;;;4.85;4.15;;;;;;;9.82;100.00;99637.84;5005532;28;20121;-78
2022/09/18 00:47:40;;;;;;;3.85;3.45;;;;;;;9.84;100.00;99631.63;5005248;28;20042;-78
2022/09/18 00:50:11;;;;;;;3.88;3.55;;;;;;;9.83;100.00;99639.59;5006754;28;20033;-78
2022/09/18 00:53:00;;;;;;;5.13;3.27;;;;;;;9.86;100.00;99652.72;5009394;28;20488;-79
2022/09/18 00:55:30;;;;;;;6.45;2.97;;;;;;;9.88;100.00;99640.38;5003432;28;20285;-79
2022/09/18 00:57:59;;;;;;;3.60;3.30;;;;;;;9.82;100.00;99632.56;5004736;28;20404;-78
2022/09/18 01:00:26;;;;;;;5.65;3.50;;;;;;;9.85;100.00;99640.41;5006981;28;20048;-79
2022/09/18 01:02:51;;;;;;;3.60;3.30;;;;;;;9.88;100.00;99649.16;5006458;28;20034;-78
2022/09/18 01:05:29;;;;;;;6.72;3.50;;;;;;;9.87;100.00;99646.53;5005253;28;20444;-78
2022/09/18 01:08:34;;;;;;;8.05;3.65;;;;;;;9.86;100.00;99645.66;5004082;28;20043;-77
2022/09/18 01:11:18;;;;;;;6.65;3.70;;;;;;;9.86;100.00;99647.44;5007854;28;20033;-78
2022/09/18 01:14:07;;;;;;;3.80;3.13;;;;;;;9.87;100.00;99651.81;5022681;28;20034;-78
2022/09/18 01:16:43;;;;;;;5.70;3.67;;;;;;;9.89;100.00;99650.00;5022772;28;20037;-78
2022/09/18 01:19:29;;;;;;;8.45;3.13;;;;;;;9.88;100.00;99666.75;5004262;28;20090;-77
2022/09/18 01:22:01;;;;;;;4.80;3.65;;;;;;;9.88;100.00;99669.38;5006879;28;20049;-77
2022/09/18 01:24:45;;;;;;;12.48;4.95;;;;;;;9.87;100.00;99672.88;5004082;28;20038;-77
2022/09/18 01:27:24;;;;;;;7.35;4.70;;;;;;;9.84;100.00;99662.41;5002506;28;20473;-76
2022/09/18 01:29:59;;;;;;;19.17;3.97;;;;;;;9.73;100.00;99667.84;5001815;28;20061;-76
2022/09/18 01:32:27;;;;;;;6.95;3.78;;;;;;;9.70;100.00;99680.22;5005639;28;20033;-75
2022/09/18 01:35:12;;;;;;;5.70;3.55;;;;;;;9.61;100.00;99675.94;5012170;28;20041;-76
2022/09/18 01:37:43;;;;;;;7.43;3.78;;;;;;;9.56;100.00;99669.88;5002694;28;20104;-76
2022/09/18 01:40:21;;;;;;;5.68;3.97;;;;;;;9.56;100.00;99670.78;5001567;28;20417;-76
2022/09/18 01:42:49;;;;;;;7.03;4.55;;;;;;;9.48;100.00;99680.53;5002219;28;20038;-76
2022/09/18 01:45:25;;;;;;;5.22;3.75;;;;;;;9.50;100.00;99680.53;5003305;28;20044;-76
2022/09/18 01:47:57;;;;;;;7.10;5.05;;;;;;;9.49;100.00;99669.13;5001697;28;20035;-76
2022/09/18 01:50:27;;;;;;;5.10;4.10;;;;;;;9.46;100.00;99671.81;5002222;28;20117;-76
2022/09/18 01:53:15;;;;;;;7.32;4.22;;;;;;;9.48;100.00;99671.75;5006414;28;20382;-76
2022/09/18 01:55:49;;;;;;;7.95;4.70;;;;;;;9.39;100.00;99667.53;5003733;28;20030;-76
2022/09/18 01:58:17;;;;;;;5.10;4.43;;;;;;;9.39;100.00;99670.16;5015094;28;20041;-76
2022/09/18 02:00:47;;;;;;;7.80;3.88;;;;;;;9.30;100.00;99672.91;5004630;28;20493;-76
2022/09/18 02:03:17;;;;;;;4.68;3.80;;;;;;;9.33;100.00;99675.53;5000648;28;20046;-76
2022/09/18 02:05:46;;;;;;;10.20;4.95;;;;;;;9.32;100.00;99669.34;5017406;28;20464;-76
2022/09/18 02:08:23;;;;;;;10.15;4.50;;;;;;;9.34;100.00;99674.63;5002188;28;20191;-76
2022/09/18 02:10:58;;;;;;;7.07;4.15;;;;;;;9.31;100.00;99674.66;5017457;28;20564;-76
2022/09/18 02:13:30;;;;;;;;;;;;;;;9.29;100.00;99673.81;5008396;28;20381;-76
2022/09/18 02:15:59;;;;;;;7.55;5.18;;;;;;;9.24;100.00;99662.47;5005035;28;19925;-76
2022/09/18 02:18:33;;;;;;;9.70;4.57;;;;;;;9.26;100.00;99671.22;4997749;28;20045;-76
2022/09/18 02:21:00;;;;;;;8.13;4.38;;;;;;;9.29;100.00;99679.06;5004282;28;20492;-76
2022/09/18 02:23:27;;;;;;;9.88;4.70;;;;;;;9.20;100.00;99675.69;5000323;28;20065;-76
2022/09/18 02:25:56;;;;;;;6.47;4.82;;;;;;;9.20;100.00;99677.47;5000299;28;20425;-76
2022/09/18 02:28:24;;;;;;;5.20;4.25;;;;;;;9.31;100.00;99677.31;5002399;28;20029;-76
2022/09/18 02:30:49;;;;;;;13.20;4.78;;;;;;;9.31;100.00;99677.31;5015325;28;20149;-76
2022/09/18 02:33:29;;;;;;;7.05;4.97;;;;;;;9.34;100.00;99682.53;5004037;28;20117;-76
2022/09/18 02:36:12;;;;;;;10.30;4.70;;;;;;;9.33;100.00;99667.63;5001872;28;20072;-76
2022/09/18 02:39:06;;;;;;;6.35;4.68;;;;;;;9.36;100.00;99667.56;5010067;28;20073;-76
2022/09/18 02:41:37;;;;;;;10.73;4.95;;;;;;;9.29;100.00;99677.31;5002270;28;20042;-76
2022/09/18 02:44:08;;;;;;;;;;;;;;;9.23;100.00;99679.19;5001291;28;20497;-76
2022/09/18 02:46:39;;;;;;;;;;;;;;;9.27;100.00;99686.13;5017198;28;19913;-76
2022/09/18 02:49:29;;;;;;;11.98;5.95;;;;;;;9.26;100.00;99687.88;5005873;28;19952;-76
2022/09/18 02:52:02;;;;;;;20.67;6.55;;;;;;;9.25;100.00;99708.97;5022561;28;20037;-76
2022/09/18 02:54:46;;;;;;;18.20;6.50;;;;;;;9.24;100.00;99689.66;5011213;28;20061;-76
2022/09/18 02:57:29;;;;;;;22.40;6.82;;;;;;;9.22;100.00;99688.81;5001491;28;20033;-76
2022/09/18 02:59:58;;;;;;;15.57;5.63;;;;;;;9.18;100.00;99688.00;5019714;28;20168;-76
2022/09/18 03:02:24;;;;;;;10.20;5.60;;;;;;;9.15;100.00;99702.97;5010678;28;20068;-76
2022/09/18 03:04:50;;;;;;;23.20;6.15;;;;;;;9.13;100.00;99713.50;4999618;28;20058;-76
2022/09/18 03:07:24;;;;;;;13.38;6.13;;;;;;;9.15;100.00;99711.75;5004109;28;20037;-76
2022/09/18 03:09:50;;;;;;;18.88;6.05;;;;;;;9.12;100.00;99709.16;5020513;28;20492;-76
2022/09/18 03:12:16;;;;;;;17.13;6.40;;;;;;;9.12;100.00;99713.56;5010255;28;20044;-76
2022/09/18 03:14:46;;;;;;;17.92;6.63;;;;;;;9.10;100.00;99718.81;4999314;28;20041;-76
2022/09/18 03:17:11;;;;;;;13.50;5.85;;;;;;;9.11;100.00;99709.16;5003646;28;20041;-76
2022/09/18 03:19:37;;;;;;;14.88;5.53;;;;;;;9.11;100.00;99728.44;4997150;28;20030;-76
2022/09/18 03:22:02;;;;;;;10.68;5.38;;;;;;;9.08;100.00;99728.50;5005436;28;20041;-76
2022/09/18 03:24:31;;;;;;;17.33;6.70;;;;;;;9.09;100.00;99730.25;5011866;28;20107;-76
2022/09/18 03:26:57;;;;;;;13.55;5.60;;;;;;;9.10;100.00;99729.34;5001711;28;20037;-76
2022/09/18 03:29:24;;;;;;;13.52;6.15;;;;;;;9.11;100.00;99738.97;4999435;28;20069;-76
2022/09/18 03:31:50;;;;;;;15.15;5.95;;;;;;;9.09;100.00;99740.78;5001134;28;20123;-76
2022/09/18 03:34:16;;;;;;;11.45;5.75;;;;;;;9.13;100.00;99753.00;5011588;28;20548;-75
2022/09/18 03:36:44;;;;;;;17.30;5.80;;;;;;;9.11;100.00;99754.78;5006086;28;20492;-75
2022/09/18 03:39:10;;;;;;;13.50;5.45;;;;;;;9.11;100.00;99749.50;5018522;28;20042;-76
2022/09/18 03:41:36;;;;;;;15.00;5.57;;;;;;;9.12;100.00;99774.09;5002692;28;20034;-76
2022/09/18 03:44:05;;;;;;;12.32;5.82;;;;;;;9.09;100.00;99756.59;5002645;28;20037;-76
2022/09/18 03:46:30;;;;;;;10.60;5.97;;;;;;;9.05;100.00;99778.56;4997346;28;20034;-76
2022/09/18 03:49:15;;;;;;;15.27;5.53;;;;;;;9.12;100.00;99767.06;5008549;28;20437;-76
2022/09/18 03:51:41;;;;;;;18.60;16.67;;;;;;;9.03;100.00;99761.91;4991699;28;20128;-75
2022/09/18 03:54:07;;;;;;;13.43;5.68;;;;;;;9.06;100.00;99769.75;4983581;28;20073;-75
2022/09/18 03:57:08;;;;;;;14.70;5.50;;;;;;;9.02;100.00;99770.69;4939765;29;20043;-76
2022/09/18 03:59:52;;;;;;;11.73;5.80;;;;;;;9.02;100.00;99775.09;4992792;28;20111;-75
2022/09/18 04:02:38;;;;;;;20.30;6.38;;;;;;;9.04;100.00;99781.19;5000006;28;20042;-76
2022/09/18 04:05:32;;;;;;;13.23;5.88;;;;;;;9.10;100.00;99789.03;4974319;28;20525;-75
2022/09/18 04:08:17;;;;;;;14.98;6.13;;;;;;;9.20;100.00;99790.66;5000556;28;20057;-75
2022/09/18 04:10:58;;;;;;;16.15;6.97;;;;;;;9.16;100.00;99787.19;4982929;28;20069;-76
2022/09/18 04:13:24;;;;;;;8.23;6.70;;;;;;;9.26;100.00;99794.97;4992105;28;20062;-76
2022/09/18 04:15:49;;;;;;;14.68;6.40;;;;;;;9.25;100.00;99806.38;4980848;28;20048;-75
2022/09/18 04:18:16;;;;;;;11.25;6.07;;;;;;;9.23;100.00;99802.94;4983619;28;20038;-76
2022/09/18 04:20:41;;;;;;;11.90;6.55;;;;;;;9.24;100.00;99802.88;4998346;28;20129;-75
2022/09/18 04:23:07;;;;;;;13.23;6.88;;;;;;;9.28;100.00;99804.59;5006347;28;20045;-76
2022/09/18 04:25:32;;;;;;;15.00;7.22;;;;;;;9.24;100.00;99800.25;5001524;28;20481;-76
2022/09/18 04:27:59;;;;;;;11.63;5.80;;;;;;;9.34;100.00;99819.44;5013807;28;20050;-76
2022/09/18 04:30:24;;;;;;;12.73;5.82;;;;;;;9.32;100.00;99806.28;5002441;28;20038;-76
2022/09/18 04:32:49;;;;;;;14.98;5.57;;;;;;;9.24;100.00;99808.16;5001647;28;20034;-76
2022/09/18 04:35:17;;;;;;;7.85;5.10;;;;;;;9.27;100.00;99823.91;4995619;28;20034;-76
2022/09/18 04:37:42;;;;;;;14.18;5.65;;;;;;;9.28;100.00;99830.06;5002337;28;20030;-76
2022/09/18 04:40:08;;;;;;;13.60;5.35;;;;;;;9.33;100.00;99820.34;5004076;28;20479;-76
2022/09/18 04:42:35;;;;;;;12.18;4.80;;;;;;;9.39;100.00;99828.16;5002092;28;20431;-76
2022/09/18 04:45:00;;;;;;;14.05;5.40;;;;;;;9.38;100.00;99836.97;4998830;28;20034;-76
2022/09/18 04:47:26;;;;;;;12.60;4.80;;;;;;;9.31;100.00;99820.38;5005313;28;20045;-78
2022/09/18 04:49:51;;;;;;;10.05;4.80;;;;;;;9.31;100.00;99830.03;5003685;28;20030;-80
2022/09/18 04:52:18;;;;;;;16.00;5.15;;;;;;;9.28;100.00;99830.94;5004203;28;20041;-78
2022/09/18 04:54:44;;;;;;;11.48;4.95;;;;;;;9.38;100.00;99829.94;4998561;28;20456;-78
2022/09/18 04:57:09;;;;;;;12.77;7.72;;;;;;;9.38;100.00;99829.06;5004102;28;20033;-78
2022/09/18 04:59:34;;;;;;;11.50;4.90;;;;;;;9.41;100.00;99850.09;5000855;28;20034;-78
2022/09/18 05:02:00;;;;;;;15.40;4.85;;;;;;;9.37;100.00;99841.34;5008074;28;20102;-78
2022/09/18 05:04:25;;;;;;;9.38;4.85;;;;;;;9.43;100.00;99849.19;5000595;28;20536;-78
2022/09/18 05:07:05;;;;;;;8.68;5.55;;;;;;;9.54;100.00;99854.31;5006754;28;20037;-76
2022/09/18 05:09:33;;;;;;;12.30;5.18;;;;;;;9.52;100.00;99853.47;5002441;28;20042;-76
2022/09/18 05:11:58;;;;;;;17.92;5.05;;;;;;;9.56;100.00;99872.72;5005117;28;20037;-77
2022/09/18 05:14:24;;;;;;;12.43;5.20;;;;;;;9.55;100.00;99863.94;4999869;28;20042;-76
2022/09/18 05:16:55;;;;;;;10.50;4.75;;;;;;;9.57;100.00;99854.28;5004888;28;20180;-76
2022/09/18 05:19:34;;;;;;;12.23;4.53;;;;;;;9.57;100.00;99864.81;5003578;28;20041;-77
2022/09/18 05:22:04;;;;;;;9.35;4.53;;;;;;;9.64;100.00;99881.41;5007296;28;20049;-77
2022/09/18 05:24:33;;;;;;;11.77;5.60;;;;;;;9.56;100.00;99873.63;5004630;28;20065;-76
2022/09/18 05:26:59;;;;;;;10.95;5.47;;;;;;;9.60;100.00;99870.03;5008348;28;20062;-76
2022/09/18 05:29:24;;;;;;;12.98;4.93;;;;;;;9.56;100.00;99857.81;5007803;28;20065;-76
2022/09/18 05:31:54;;;;;;;7.70;4.47;;;;;;;9.64;100.00;99855.94;5003417;28;20037;-77
2022/09/18 05:34:19;;;;;;;13.05;4.85;;;;;;;9.63;100.00;99859.44;5001859;28;20038;-76
2022/09/18 05:36:45;;;;;;;10.35;4.95;;;;;;;9.66;100.00;99872.56;5004400;28;20044;-76
2022/09/18 05:39:10;;;;;;;10.77;4.75;;;;;;;9.65;100.00;99865.56;5001430;28;20493;-76
2022/09/18 05:41:36;;;;;;;6.72;4.05;;;;;;;9.72;100.00;99873.38;5004526;28;20037;-77
2022/09/18 05:44:03;;;;;;;8.00;4.90;;;;;;;9.71;100.00;99869.03;5015882;28;20037;-77
2022/09/18 05:46:28;;;;;;;14.98;4.65;;;;;;;9.73;100.00;99859.34;5005092;28;20034;-77
2022/09/18 05:48:58;;;;;;;9.50;4.50;;;;;;;9.73;100.00;99881.28;5002153;28;20140;-77
2022/09/18 05:51:24;;;;;;;10.07;4.13;;;;;;;9.78;100.00;99878.59;5021198;28;20501;-77
2022/09/18 05:53:49;;;;;;;10.75;4.13;;;;;;;9.80;100.00;99879.47;5006305;28;20517;-79
2022/09/18 05:56:18;;;;;;;11.23;4.95;;;;;;;9.85;100.00;99883.78;4990364;28;20061;-78
2022/09/18 05:58:44;;;;;;;10.32;5.50;;;;;;;9.85;100.00;99888.16;5020054;28;20030;-81
2022/09/18 06:01:10;;;;;;;10.63;5.30;;;;;;;9.88;100.00;99886.38;5007539;28;20113;-78
2022/09/18 06:04:08;;;;;;;11.60;4.80;;;;;;;9.93;100.00;99881.03;5008039;28;20038;-79
2022/09/18 06:06:42;;;;;;;9.82;4.70;;;;;;;9.92;100.00;99896.84;5021141;28;20081;-79
2022/09/18 06:09:08;;;;;;;10.95;5.82;;;;;;;9.92;100.00;99887.19;5007911;28;20480;-77
2022/09/18 06:11:34;;;;;;;9.93;5.20;;;;;;;9.94;99.80;99893.31;5009434;28;20042;-77
2022/09/18 06:13:59;;;;;;;9.93;5.15;;;;;;;9.97;98.58;99890.63;5005845;28;20049;-77
2022/09/18 06:16:25;;;;;;;13.60;4.07;;;;;;;9.94;98.34;99892.44;5006620;28;20085;-77
2022/09/18 06:18:56;;;;;;;10.63;5.95;;;;;;;9.92;98.34;99902.13;5001995;28;20034;-77
2022/09/18 06:21:21;;;;;;;8.05;4.47;;;;;;;9.83;99.57;99888.19;5010897;28;20541;-78
2022/09/18 06:23:46;;;;;;;10.07;5.63;;;;;;;9.78;99.78;99891.78;5013983;28;20085;-79
2022/09/18 06:26:32;;;;;;;7.45;4.97;;;;;;;9.71;99.90;99898.00;5011038;28;20030;-79
2022/09/18 06:28:58;;;;;;;7.20;5.78;;;;;;;9.70;99.57;99898.91;5003855;28;20603;-79
2022/09/18 06:31:31;;;;;;;;;;;;;;;9.72;99.52;99903.28;5018345;28;20110;-79
2022/09/18 06:34:04;;;;;;;8.50;4.80;;;;;;;9.79;98.91;99902.28;5015845;28;19922;-79
2022/09/18 06:36:29;;;;;;;9.00;4.72;;;;;;;9.79;98.41;99906.69;5022372;28;20030;-80
2022/09/18 06:39:18;;;;;;;11.65;6.20;;;;;;;9.85;98.47;99907.50;4980422;28;20038;-79
2022/09/18 06:41:45;;;;;;;7.68;5.30;;;;;;;9.94;97.22;99916.16;5015275;28;20092;-78
2022/09/18 06:44:30;;;;;;;8.35;4.93;;;;;;;10.10;96.67;99908.00;5013672;28;20029;-82
2022/09/18 06:47:03;;;;;;;14.63;6.03;;;;;;;10.26;95.35;99913.06;5009316;28;20381;-82
2022/09/18 06:49:35;;;;;;;15.27;4.95;;;;;;;10.32;95.20;99905.09;5002492;28;20045;-83
2022/09/18 06:52:02;;;;;;;9.05;5.40;;;;;;;10.33;95.69;99903.34;4995739;28;20484;-83
2022/09/18 06:54:27;;;;;;;11.30;5.28;;;;;;;10.48;95.02;99909.25;5023744;28;20044;-83
2022/09/18 06:56:53;;;;;;;9.32;5.82;;;;;;;10.60;93.08;99913.44;5012216;28;20508;-82
2022/09/18 06:59:19;;;;;;;13.80;5.82;;;;;;;10.82;92.87;99919.28;5015743;28;20126;-82
2022/09/18 07:01:47;;;;;;;8.98;5.60;;;;;;;10.85;90.74;99926.25;5008473;28;20493;-81
2022/09/18 07:04:17;;;;;;;14.75;7.07;;;;;;;11.00;89.41;99925.09;5004127;28;20037;-82
2022/09/18 07:06:44;;;;;;;11.85;7.13;;;;;;;11.03;87.95;99927.69;5008063;28;20423;-82
2022/09/18 07:09:11;;;;;;;11.10;5.78;;;;;;;11.15;88.10;99923.06;5019481;28;20030;-82
2022/09/18 07:12:00;;;;;;;7.47;6.13;;;;;;;11.29;87.90;99920.19;5004079;28;20409;-82
2022/09/18 07:14:33;;;;;;;7.50;5.07;;;;;;;11.19;87.75;99913.34;5011821;28;20064;-81
2022/09/18 07:17:11;;;;;;;10.27;5.57;;;;;;;11.03;89.37;99931.22;5016291;28;20399;-82
2022/09/18 07:19:36;;;;;;;11.02;5.45;;;;;;;11.02;89.74;99926.81;5021513;28;20177;-82
2022/09/18 07:22:02;;;;;;;17.15;14.93;;;;;;;10.89;90.50;99935.84;5020922;28;20033;-81
2022/09/18 07:24:32;;;;;;;7.18;5.00;;;;;;;10.93;89.72;99938.44;5023685;28;20057;-81
2022/09/18 07:26:58;;;;;;;12.88;6.15;;;;;;;11.06;89.29;99923.25;5019354;28;20496;-81
2022/09/18 07:29:24;;;;;;;7.10;6.15;;;;;;;11.25;86.16;99942.25;5012093;28;20129;-80
2022/09/18 07:31:50;;;;;;;10.68;6.03;;;;;;;11.53;85.61;99939.97;5014542;28;20045;-80
2022/09/18 07:34:16;;;;;;;12.27;11.02;;;;;;;11.48;85.00;99935.69;5015386;28;20124;-80
2022/09/18 07:36:42;;;;;;;9.70;5.47;;;;;;;11.48;85.02;99946.25;5007157;28;20560;-79
2022/09/18 07:39:07;;;;;;;8.25;6.25;;;;;;;11.37;84.53;99943.78;5012047;28;20042;-79
2022/09/18 07:41:50;;;;;;;8.73;5.28;;;;;;;11.29;84.20;99951.00;5012024;28;20030;-79
2022/09/18 07:44:16;;;;;;;9.50;4.97;;;;;;;11.13;85.17;99942.47;5016036;28;20048;-79
2022/09/18 07:46:41;;;;;;;12.27;5.00;;;;;;;11.04;85.41;99942.66;5013188;28;20038;-78
2022/09/18 07:49:07;;;;;;;10.80;6.60;;;;;;;10.97;86.52;99950.66;5009754;28;20025;-79
2022/09/18 07:51:35;;;;;;;6.78;5.72;;;;;;;11.01;86.48;99943.56;5017291;28;20042;-78
2022/09/18 07:54:00;;;;;;;10.70;8.50;;;;;;;11.16;84.66;99968.81;5011512;28;20034;-78
2022/09/18 07:56:44;;;;;;;12.07;6.25;;;;;;;11.45;84.90;99943.66;5011679;28;20535;-78
2022/09/18 07:59:10;;;;;;;11.75;4.90;;;;;;;11.62;83.43;99946.84;5017624;28;20030;-78
2022/09/18 08:01:35;;;;;;;11.02;8.13;;;;;;;11.72;83.45;99940.47;5012814;28;20038;-78
2022/09/18 08:04:05;;;;;;;11.18;6.28;;;;;;;11.77;81.00;99951.84;5007183;28;20034;-77
2022/09/18 08:06:53;;;;;;;12.23;8.88;;;;;;;11.91;79.67;99954.22;5007286;28;20100;-78
2022/09/18 08:09:40;;;;;;;15.23;6.57;;;;;;;11.86;80.25;99937.56;4986779;28;20046;-77
2022/09/18 08:12:24;;;;;;;10.48;7.43;;;;;;;11.81;78.16;99945.56;5008105;28;20512;-78
2022/09/18 08:15:06;;;;;;;13.07;5.63;;;;;;;12.05;78.97;99938.94;5015103;28;20142;-77
2022/09/18 08:17:45;;;;;;;8.70;5.55;;;;;;;12.09;77.73;99941.50;5006634;28;20120;-77
2022/09/18 08:20:25;;;;;;;11.30;6.38;;;;;;;12.25;78.03;99925.25;5004233;28;20094;-77
2022/09/18 08:22:53;;;;;;;12.15;5.60;;;;;;;12.36;77.21;99948.81;5026155;28;20052;-77
2022/09/18 08:25:22;;;;;;;12.02;9.52;;;;;;;12.62;75.80;99956.16;5004618;28;20030;-77
2022/09/18 08:27:48;;;;;;;12.38;7.15;;;;;;;12.75;74.14;99946.16;5018498;28;20046;-77
2022/09/18 08:30:20;;;;;;;11.98;6.10;;;;;;;12.65;71.73;99927.00;5014888;28;20029;-76
2022/09/18 08:32:50;;;;;;;10.93;6.55;;;;;;;12.95;73.39;99932.41;5003999;28;20042;-76
2022/09/18 08:35:15;;;;;;;11.27;5.50;;;;;;;13.06;72.94;99938.31;5009027;28;20049;-77
2022/09/18 08:37:50;;;;;;;15.15;9.48;;;;;;;13.10;72.17;99928.53;5011012;28;20117;-76
2022/09/18 08:40:59;;;;;;;11.27;10.15;;;;;;;13.43;71.96;99931.19;5005901;28;20030;-76
2022/09/18 08:43:40;;;;;;;9.27;6.38;;;;;;;13.47;71.38;99930.22;5006900;28;20083;-76
2022/09/18 08:46:34;;;;;;;6.43;5.45;;;;;;;13.37;70.16;99938.41;5020690;28;20034;-76
2022/09/18 08:49:19;;;;;;;12.95;6.55;;;;;;;13.36;69.81;99930.47;5004501;28;20061;-76
2022/09/18 08:52:09;;;;;;;6.57;5.95;;;;;;;13.25;68.97;99938.69;5024620;28;20485;-76
2022/09/18 08:54:50;;;;;;;10.52;5.82;;;;;;;12.80;71.54;99938.09;5009555;28;20045;-76
2022/09/18 08:57:41;;;;;;;10.75;5.82;;;;;;;12.76;71.40;99947.00;5004599;28;20034;-76
2022/09/18 09:00:20;;;;;;;8.00;5.88;;;;;;;12.83;71.11;99949.47;5014166;28;20030;-77
2022/09/18 09:03:20;;;;;;;10.43;5.85;;;;;;;12.83;69.46;99953.91;5004298;28;20030;-77
2022/09/18 09:05:51;;;;;;;12.70;6.75;;;;;;;12.78;70.46;99937.25;5005625;28;20034;-77
2022/09/18 09:08:53;;;;;;;10.15;5.63;;;;;;;13.12;69.65;99945.22;5004966;28;20034;-77
2022/09/18 09:11:49;;;;;;;7.30;6.60;;;;;;;13.12;65.90;99934.63;5014107;28;20022;-77
2022/09/18 09:14:34;;;;;;;9.90;5.38;;;;;;;13.33;67.47;99935.88;5010486;28;20507;-76
2022/09/18 09:17:08;;;;;;;10.45;5.72;;;;;;;13.33;65.08;99954.41;5007048;28;20042;-77
2022/09/18 09:19:42;;;;;;;12.70;8.88;;;;;;;13.33;65.21;99919.97;5014003;28;20034;-76
2022/09/18 09:22:23;;;;;;;10.40;5.82;;;;;;;13.33;64.42;99923.47;5006811;28;20400;-77
2022/09/18 09:25:07;;;;;;;;;;;;;;;13.51;63.23;99927.41;5019617;28;20026;-77
2022/09/18 09:27:43;;;;;;;11.20;6.93;;;;;;;13.56;63.62;99925.50;5007123;28;20123;-77
2022/09/18 09:30:34;;;;;;;10.23;5.88;;;;;;;13.73;64.26;99926.84;5012722;28;20265;-76
2022/09/18 09:33:33;;;;;;;11.00;5.97;;;;;;;13.85;61.66;99952.13;5022259;28;20454;-76
2022/09/18 09:36:17;;;;;;;10.57;5.75;;;;;;;14.01;62.66;99911.81;5018541;28;20409;-76
2022/09/18 09:38:57;;;;;;;11.75;5.90;;;;;;;14.36;61.50;99923.16;5004553;28;20405;-76
2022/09/18 09:42:02;;;;;;;12.02;8.55;;;;;;;14.40;60.16;99918.59;5017594;28;20034;-76
2022/09/18 09:44:40;;;;;;;9.80;5.32;;;;;;;14.15;59.68;99915.84;5005239;28;20109;-76
2022/09/18 09:47:47;;;;;;;7.45;4.85;;;;;;;13.90;62.59;99913.94;5006818;28;20342;-76
2022/09/18 09:50:29;;;;;;;9.18;6.28;;;;;;;13.19;69.28;99930.03;5021191;28;20038;-76
2022/09/18 09:52:58;;;;;;;9.80;5.53;;;;;;;12.16;75.82;99951.94;5012558;28;20073;-78
2022/09/18 09:55:29;;;;;;;8.73;5.97;;;;;;;11.40;81.62;99944.63;5019745;28;20038;-80
2022/09/18 09:58:05;;;;;;;12.30;5.82;;;;;;;10.89;87.95;99957.84;5015260;28;20397;-76
2022/09/18 10:00:40;;;;;;;6.72;4.97;;;;;;;10.49;91.53;99931.22;5015339;28;20500;-76
2022/09/18 10:03:29;;;;;;;8.73;5.18;;;;;;;10.29;96.24;99923.59;5010965;28;20030;-75
2022/09/18 10:06:16;;;;;;;12.23;7.43;;;;;;;10.38;97.37;99912.94;5016319;28;20128;-76
2022/09/18 10:08:58;;;;;;;10.25;4.38;;;;;;;10.73;99.45;99919.41;5006357;28;20163;-76
2022/09/18 10:11:24;;;;;;;9.88;5.35;;;;;;;11.04;97.01;99914.47;5003195;28;20087;-77
2022/09/18 10:14:01;;;;;;;15.77;5.70;;;;;;;11.44;90.52;99923.41;5000152;28;20045;-77
2022/09/18 10:16:33;;;;;;;11.82;5.55;;;;;;;11.87;87.75;99923.47;5009362;28;20123;-77
2022/09/18 10:18:59;;;;;;;8.15;5.45;;;;;;;12.13;84.81;99914.97;5012488;28;20431;-76
2022/09/18 10:21:28;;;;;;;9.32;5.30;;;;;;;12.25;80.48;99912.03;5009167;28;20034;-77
2022/09/18 10:24:22;;;;;;;15.68;12.43;;;;;;;12.59;79.44;99910.38;5014536;28;20045;-76
2022/09/18 10:27:06;;;;;;;6.85;6.25;;;;;;;12.90;76.81;99914.00;5008868;28;20392;-77
2022/09/18 10:29:32;;;;;;;8.70;6.13;;;;;;;13.25;70.95;99913.97;5017837;28;20048;-77
2022/09/18 10:32:00;;;;;;;10.55;6.10;;;;;;;13.42;71.75;99917.06;5005984;28;20497;-77
2022/09/18 10:34:35;;;;;;;7.20;5.68;;;;;;;13.29;71.33;99929.78;5011431;28;20045;-77
2022/09/18 10:37:02;;;;;;;6.97;5.90;;;;;;;12.83;72.49;99938.00;5017208;28;20563;-76
2022/09/18 10:39:30;;;;;;;11.30;5.45;;;;;;;12.42;75.54;99940.75;5000352;28;20524;-77
2022/09/18 10:42:04;;;;;;;16.08;14.80;;;;;;;12.49;74.87;99939.69;5014165;28;20488;-77
2022/09/18 10:44:40;;;;;;;11.35;5.32;;;;;;;12.45;76.83;99926.59;5002838;28;20030;-77
2022/09/18 10:47:17;;;;;;;9.80;7.53;;;;;;;12.79;77.43;99931.06;5007853;28;20022;-78
2022/09/18 10:49:55;;;;;;;8.52;6.97;;;;;;;13.01;77.43;99926.97;5017799;28;20038;-77
2022/09/18 10:52:32;;;;;;;7.38;6.57;;;;;;;13.22;77.17;99928.16;5007371;28;20037;-78
2022/09/18 10:55:06;;;;;;;9.80;9.10;;;;;;;13.25;75.42;99928.09;5015895;28;20038;-78
2022/09/18 10:57:35;;;;;;;5.95;4.88;;;;;;;13.20;77.50;99937.06;5004226;28;20382;-78
2022/09/18 11:00:24;;;;;;;7.32;5.25;;;;;;;13.23;78.47;99955.53;5018303;28;20033;-78
2022/09/18 11:03:02;;;;;;;12.43;7.60;;;;;;;12.84;81.31;99945.94;4984443;28;20517;-77
2022/09/18 11:05:37;;;;;;;6.50;5.65;;;;;;;12.45;83.88;99930.09;4999983;28;20041;-76
2022/09/18 11:08:14;;;;;;;7.28;4.53;;;;;;;12.13;88.75;99925.56;5000230;28;20084;-77
2022/09/18 11:10:39;;;;;;;10.52;4.82;;;;;;;12.15;88.18;99920.22;5001094;28;20069;-76
2022/09/18 11:13:05;;;;;;;6.28;4.60;;;;;;;12.27;88.21;99907.56;4998669;28;20042;-77
2022/09/18 11:15:51;;;;;;;8.60;5.45;;;;;;;12.39;87.03;99900.25;5001013;28;20089;-77
2022/09/18 11:18:17;;;;;;;11.05;4.60;;;;;;;12.52;83.57;99900.81;4999675;28;20057;-77
2022/09/18 11:20:45;;;;;;;8.20;4.60;;;;;;;12.62;82.34;99894.41;5003880;28;20511;-76
2022/09/18 11:23:36;;;;;;;8.30;5.50;;;;;;;12.82;78.64;99892.13;5007340;28;20076;-77
2022/09/18 11:26:18;;;;;;;7.35;5.05;;;;;;;12.98;77.28;99879.38;5023098;28;20061;-77
2022/09/18 11:29:04;;;;;;;13.13;5.45;;;;;;;13.42;75.97;99874.66;5004901;28;20042;-77
2022/09/18 11:31:41;;;;;;;6.82;5.72;;;;;;;13.80;72.50;99875.31;5001474;28;20038;-76
2022/09/18 11:34:38;;;;;;;7.80;5.60;;;;;;;14.19;70.09;99864.41;5002961;28;20053;-77
2022/09/18 11:37:10;;;;;;;6.93;6.32;;;;;;;14.43;69.03;99855.66;4995429;28;20480;-77
2022/09/18 11:39:42;;;;;;;11.40;4.90;;;;;;;14.41;69.45;99862.81;5002365;28;20034;-77
2022/09/18 11:42:15;;;;;;;6.13;4.75;;;;;;;14.08;69.25;99859.44;5010405;28;20057;-78
2022/09/18 11:44:44;;;;;;;7.50;4.65;;;;;;;13.93;71.82;99855.47;5020939;28;20030;-78
2022/09/18 11:47:31;;;;;;;8.02;5.43;;;;;;;14.08;70.99;99855.94;5006213;28;20556;-78
2022/09/18 11:50:19;;;;;;;7.65;5.95;;;;;;;14.51;68.71;99850.09;5019166;28;20030;-78
2022/09/18 11:52:52;;;;;;;7.20;5.35;;;;;;;14.44;67.96;99838.81;5006003;28;20522;-78
2022/09/18 11:55:27;;;;;;;6.68;5.72;;;;;;;14.75;65.92;99837.81;5025095;28;20025;-79
2022/09/18 11:57:58;;;;;;;7.45;6.72;;;;;;;14.53;65.20;99842.97;5005180;28;20130;-79
2022/09/18 12:00:30;;;;;;;10.50;6.72;;;;;;;15.04;64.54;99842.13;5006964;28;20415;-79